sensor_id;sensor_type;location;lat;lon;timestamp;P1;durP1;ratioP1;P2;durP2;ratioP2
19645;SDS011;9971;52.446;13.452;2024-02-21T00:02:47;10.00;;;3.70;;
19645;SDS011;9971;52.446;13.452;2024-02-21T00:07:50;10.38;;;4.47;;
19645;SDS011;9971;52.446;13.452;2024-02-21T00:12:52;10.53;;;4.30;;
19645;SDS011;9971;52.446;13.452;2024-02-21T00:17:55;10.80;;;3.90;;
19645;SDS011;9971;52.446;13.452;2024-02-21T00:22:57;11.03;;;4.00;;
19645;SDS011;9971;52.446;13.452;2024-02-21T00:28:00;10.03;;;3.92;;
19645;SDS011;9971;52.446;13.452;2024-02-21T00:33:02;12.45;;;3.95;;
19645;SDS011;9971;52.446;13.452;2024-02-21T00:38:05;8.63;;;3.50;;
19645;SDS011;9971;52.446;13.452;2024-02-21T00:43:07;9.90;;;4.25;;
19645;SDS011;9971;52.446;13.452;2024-02-21T00:48:10;11.53;;;4.03;;
19645;SDS011;9971;52.446;13.452;2024-02-21T00:53:12;8.28;;;3.42;;
19645;SDS011;9971;52.446;13.452;2024-02-21T00:58:15;8.38;;;3.08;;
19645;SDS011;9971;52.446;13.452;2024-02-21T01:03:17;8.55;;;3.65;;
19645;SDS011;9971;52.446;13.452;2024-02-21T01:08:20;11.83;;;3.65;;
19645;SDS011;9971;52.446;13.452;2024-02-21T01:13:22;10.17;;;3.67;;
19645;SDS011;9971;52.446;13.452;2024-02-21T01:18:25;10.93;;;4.15;;
19645;SDS011;9971;52.446;13.452;2024-02-21T01:23:27;9.93;;;3.33;;
19645;SDS011;9971;52.446;13.452;2024-02-21T01:28:30;9.10;;;3.45;;
19645;SDS011;9971;52.446;13.452;2024-02-21T01:33:32;10.00;;;3.73;;
19645;SDS011;9971;52.446;13.452;2024-02-21T01:38:34;10.98;;;3.60;;
19645;SDS011;9971;52.446;13.452;2024-02-21T01:43:36;8.50;;;3.57;;
19645;SDS011;9971;52.446;13.452;2024-02-21T01:48:38;9.15;;;3.50;;
19645;SDS011;9971;52.446;13.452;2024-02-21T01:53:42;9.07;;;3.53;;
19645;SDS011;9971;52.446;13.452;2024-02-21T01:58:44;9.83;;;3.53;;
19645;SDS011;9971;52.446;13.452;2024-02-21T02:03:46;10.63;;;3.87;;
19645;SDS011;9971;52.446;13.452;2024-02-21T02:08:48;7.90;;;3.12;;
19645;SDS011;9971;52.446;13.452;2024-02-21T02:13:51;8.95;;;3.42;;
19645;SDS011;9971;52.446;13.452;2024-02-21T02:18:53;7.67;;;3.17;;
19645;SDS011;9971;52.446;13.452;2024-02-21T02:23:56;8.40;;;3.87;;
19645;SDS011;9971;52.446;13.452;2024-02-21T02:28:58;9.80;;;3.40;;
19645;SDS011;9971;52.446;13.452;2024-02-21T02:34:00;9.35;;;3.70;;
19645;SDS011;9971;52.446;13.452;2024-02-21T02:39:02;7.75;;;3.02;;
19645;SDS011;9971;52.446;13.452;2024-02-21T02:44:05;9.30;;;4.25;;
19645;SDS011;9971;52.446;13.452;2024-02-21T02:49:07;9.50;;;4.53;;
19645;SDS011;9971;52.446;13.452;2024-02-21T02:54:10;9.23;;;3.60;;
19645;SDS011;9971;52.446;13.452;2024-02-21T02:59:12;8.13;;;3.60;;
19645;SDS011;9971;52.446;13.452;2024-02-21T03:04:14;8.50;;;3.92;;
19645;SDS011;9971;52.446;13.452;2024-02-21T03:09:17;9.95;;;3.58;;
19645;SDS011;9971;52.446;13.452;2024-02-21T03:14:19;9.45;;;3.52;;
19645;SDS011;9971;52.446;13.452;2024-02-21T03:19:22;8.30;;;3.70;;
19645;SDS011;9971;52.446;13.452;2024-02-21T03:24:24;7.60;;;3.58;;
19645;SDS011;9971;52.446;13.452;2024-02-21T03:29:27;8.05;;;3.80;;
19645;SDS011;9971;52.446;13.452;2024-02-21T03:34:29;7.83;;;3.75;;
19645;SDS011;9971;52.446;13.452;2024-02-21T03:39:32;9.53;;;4.30;;
19645;SDS011;9971;52.446;13.452;2024-02-21T03:44:34;7.67;;;3.72;;
19645;SDS011;9971;52.446;13.452;2024-02-21T03:49:37;7.83;;;3.77;;
19645;SDS011;9971;52.446;13.452;2024-02-21T03:54:38;7.73;;;3.90;;
19645;SDS011;9971;52.446;13.452;2024-02-21T03:59:41;9.10;;;4.08;;
19645;SDS011;9971;52.446;13.452;2024-02-21T04:04:44;9.13;;;3.87;;
19645;SDS011;9971;52.446;13.452;2024-02-21T04:09:45;6.67;;;3.77;;
19645;SDS011;9971;52.446;13.452;2024-02-21T04:14:48;9.93;;;3.85;;
19645;SDS011;9971;52.446;13.452;2024-02-21T04:19:51;6.55;;;3.80;;
19645;SDS011;9971;52.446;13.452;2024-02-21T04:24:52;8.07;;;3.63;;
19645;SDS011;9971;52.446;13.452;2024-02-21T04:29:55;9.20;;;5.08;;
19645;SDS011;9971;52.446;13.452;2024-02-21T04:34:58;7.85;;;4.03;;
19645;SDS011;9971;52.446;13.452;2024-02-21T04:40:00;10.97;;;4.17;;
19645;SDS011;9971;52.446;13.452;2024-02-21T04:45:02;8.78;;;4.28;;
19645;SDS011;9971;52.446;13.452;2024-02-21T04:50:05;8.60;;;4.15;;
19645;SDS011;9971;52.446;13.452;2024-02-21T04:55:08;10.93;;;4.40;;
19645;SDS011;9971;52.446;13.452;2024-02-21T05:00:10;10.15;;;4.62;;
19645;SDS011;9971;52.446;13.452;2024-02-21T05:05:13;10.55;;;4.80;;
19645;SDS011;9971;52.446;13.452;2024-02-21T05:10:15;9.18;;;4.37;;
19645;SDS011;9971;52.446;13.452;2024-02-21T05:15:17;8.58;;;3.90;;
19645;SDS011;9971;52.446;13.452;2024-02-21T05:20:20;8.65;;;4.55;;
19645;SDS011;9971;52.446;13.452;2024-02-21T05:25:22;6.15;;;3.70;;
19645;SDS011;9971;52.446;13.452;2024-02-21T05:30:25;8.35;;;4.28;;
19645;SDS011;9971;52.446;13.452;2024-02-21T05:35:27;8.03;;;4.22;;
19645;SDS011;9971;52.446;13.452;2024-02-21T05:40:29;10.37;;;5.07;;
19645;SDS011;9971;52.446;13.452;2024-02-21T05:45:31;10.43;;;4.55;;
19645;SDS011;9971;52.446;13.452;2024-02-21T05:50:34;11.43;;;4.28;;
19645;SDS011;9971;52.446;13.452;2024-02-21T05:55:36;8.83;;;4.35;;
19645;SDS011;9971;52.446;13.452;2024-02-21T06:00:39;8.23;;;4.23;;
19645;SDS011;9971;52.446;13.452;2024-02-21T06:05:41;6.43;;;4.23;;
19645;SDS011;9971;52.446;13.452;2024-02-21T06:10:43;8.88;;;4.53;;
19645;SDS011;9971;52.446;13.452;2024-02-21T06:15:46;7.22;;;4.28;;
19645;SDS011;9971;52.446;13.452;2024-02-21T06:20:48;7.57;;;4.20;;
19645;SDS011;9971;52.446;13.452;2024-02-21T06:25:50;10.50;;;4.83;;
19645;SDS011;9971;52.446;13.452;2024-02-21T06:30:52;9.88;;;4.28;;
19645;SDS011;9971;52.446;13.452;2024-02-21T06:35:55;9.23;;;4.55;;
19645;SDS011;9971;52.446;13.452;2024-02-21T06:40:57;5.65;;;4.25;;
19645;SDS011;9971;52.446;13.452;2024-02-21T06:46:00;6.17;;;4.87;;
19645;SDS011;9971;52.446;13.452;2024-02-21T06:51:02;7.65;;;4.47;;
19645;SDS011;9971;52.446;13.452;2024-02-21T06:56:05;6.33;;;4.43;;
19645;SDS011;9971;52.446;13.452;2024-02-21T07:01:08;7.75;;;4.53;;
19645;SDS011;9971;52.446;13.452;2024-02-21T07:06:10;8.53;;;4.67;;
19645;SDS011;9971;52.446;13.452;2024-02-21T07:11:12;8.25;;;5.00;;
19645;SDS011;9971;52.446;13.452;2024-02-21T07:16:15;8.47;;;5.03;;
19645;SDS011;9971;52.446;13.452;2024-02-21T07:21:17;11.65;;;4.60;;
19645;SDS011;9971;52.446;13.452;2024-02-21T07:26:20;7.33;;;4.80;;
19645;SDS011;9971;52.446;13.452;2024-02-21T07:31:22;8.35;;;4.55;;
19645;SDS011;9971;52.446;13.452;2024-02-21T07:36:28;8.08;;;4.45;;
19645;SDS011;9971;52.446;13.452;2024-02-21T07:41:30;7.33;;;4.30;;
19645;SDS011;9971;52.446;13.452;2024-02-21T07:46:32;7.40;;;4.17;;
19645;SDS011;9971;52.446;13.452;2024-02-21T07:51:34;8.00;;;3.87;;
19645;SDS011;9971;52.446;13.452;2024-02-21T07:56:36;7.97;;;4.23;;
19645;SDS011;9971;52.446;13.452;2024-02-21T08:01:40;8.05;;;4.03;;
19645;SDS011;9971;52.446;13.452;2024-02-21T08:06:41;7.83;;;4.17;;
19645;SDS011;9971;52.446;13.452;2024-02-21T08:11:43;6.53;;;4.08;;
19645;SDS011;9971;52.446;13.452;2024-02-21T08:16:46;6.80;;;4.58;;
19645;SDS011;9971;52.446;13.452;2024-02-21T08:21:48;6.33;;;4.70;;
19645;SDS011;9971;52.446;13.452;2024-02-21T08:26:51;8.63;;;4.30;;
19645;SDS011;9971;52.446;13.452;2024-02-21T08:31:53;7.60;;;4.40;;
19645;SDS011;9971;52.446;13.452;2024-02-21T08:36:56;6.20;;;4.10;;
19645;SDS011;9971;52.446;13.452;2024-02-21T08:41:58;9.05;;;5.03;;
19645;SDS011;9971;52.446;13.452;2024-02-21T08:47:00;9.35;;;5.40;;
19645;SDS011;9971;52.446;13.452;2024-02-21T08:52:02;10.18;;;5.40;;
19645;SDS011;9971;52.446;13.452;2024-02-21T08:57:05;9.23;;;5.00;;
19645;SDS011;9971;52.446;13.452;2024-02-21T09:02:07;7.40;;;5.35;;
19645;SDS011;9971;52.446;13.452;2024-02-21T09:07:10;10.00;;;5.40;;
19645;SDS011;9971;52.446;13.452;2024-02-21T09:12:12;8.93;;;5.20;;
19645;SDS011;9971;52.446;13.452;2024-02-21T09:17:14;10.00;;;5.42;;
19645;SDS011;9971;52.446;13.452;2024-02-21T09:22:16;9.28;;;5.75;;
19645;SDS011;9971;52.446;13.452;2024-02-21T09:27:19;9.23;;;5.63;;
19645;SDS011;9971;52.446;13.452;2024-02-21T09:32:21;11.60;;;5.50;;
19645;SDS011;9971;52.446;13.452;2024-02-21T09:37:23;7.25;;;5.45;;
19645;SDS011;9971;52.446;13.452;2024-02-21T09:42:30;11.87;;;5.83;;
19645;SDS011;9971;52.446;13.452;2024-02-21T09:47:56;8.50;;;5.30;;
19645;SDS011;9971;52.446;13.452;2024-02-21T09:52:51;7.10;;;5.27;;
19645;SDS011;9971;52.446;13.452;2024-02-21T09:57:53;6.77;;;5.53;;
19645;SDS011;9971;52.446;13.452;2024-02-21T10:02:55;9.23;;;5.83;;
19645;SDS011;9971;52.446;13.452;2024-02-21T10:07:57;9.25;;;6.22;;
19645;SDS011;9971;52.446;13.452;2024-02-21T10:12:59;9.38;;;6.08;;
19645;SDS011;9971;52.446;13.452;2024-02-21T10:18:02;10.75;;;5.70;;
19645;SDS011;9971;52.446;13.452;2024-02-21T10:23:05;7.65;;;4.95;;
19645;SDS011;9971;52.446;13.452;2024-02-21T10:28:11;6.83;;;5.27;;
19645;SDS011;9971;52.446;13.452;2024-02-21T10:33:11;9.90;;;5.28;;
19645;SDS011;9971;52.446;13.452;2024-02-21T10:38:13;8.33;;;5.70;;
19645;SDS011;9971;52.446;13.452;2024-02-21T10:43:15;8.23;;;5.05;;
19645;SDS011;9971;52.446;13.452;2024-02-21T10:48:19;6.80;;;5.20;;
19645;SDS011;9971;52.446;13.452;2024-02-21T10:53:24;6.30;;;5.20;;
19645;SDS011;9971;52.446;13.452;2024-02-21T10:58:25;7.58;;;5.00;;
19645;SDS011;9971;52.446;13.452;2024-02-21T11:03:26;6.47;;;4.70;;
19645;SDS011;9971;52.446;13.452;2024-02-21T11:08:28;6.93;;;4.93;;
19645;SDS011;9971;52.446;13.452;2024-02-21T11:13:31;5.80;;;5.12;;
19645;SDS011;9971;52.446;13.452;2024-02-21T11:18:33;8.73;;;4.80;;
19645;SDS011;9971;52.446;13.452;2024-02-21T11:23:35;6.53;;;4.42;;
19645;SDS011;9971;52.446;13.452;2024-02-21T11:28:38;9.95;;;4.85;;
19645;SDS011;9971;52.446;13.452;2024-02-21T11:33:41;5.40;;;3.98;;
19645;SDS011;9971;52.446;13.452;2024-02-21T11:38:43;6.37;;;3.83;;
19645;SDS011;9971;52.446;13.452;2024-02-21T11:43:46;5.42;;;3.65;;
19645;SDS011;9971;52.446;13.452;2024-02-21T11:48:48;4.55;;;3.95;;
19645;SDS011;9971;52.446;13.452;2024-02-21T11:53:52;6.42;;;4.08;;
19645;SDS011;9971;52.446;13.452;2024-02-21T11:58:54;5.20;;;4.10;;
19645;SDS011;9971;52.446;13.452;2024-02-21T12:03:56;4.33;;;3.40;;
19645;SDS011;9971;52.446;13.452;2024-02-21T12:08:59;4.17;;;3.17;;
19645;SDS011;9971;52.446;13.452;2024-02-21T12:14:01;6.97;;;3.20;;
19645;SDS011;9971;52.446;13.452;2024-02-21T12:19:03;3.63;;;3.00;;
19645;SDS011;9971;52.446;13.452;2024-02-21T12:24:12;4.27;;;2.67;;
19645;SDS011;9971;52.446;13.452;2024-02-21T12:29:16;5.27;;;2.53;;
19645;SDS011;9971;52.446;13.452;2024-02-21T12:34:19;2.70;;;2.37;;
19645;SDS011;9971;52.446;13.452;2024-02-21T12:39:21;3.33;;;2.70;;
19645;SDS011;9971;52.446;13.452;2024-02-21T12:44:23;4.05;;;2.72;;
19645;SDS011;9971;52.446;13.452;2024-02-21T12:49:26;4.67;;;2.50;;
19645;SDS011;9971;52.446;13.452;2024-02-21T12:54:28;2.55;;;2.12;;
19645;SDS011;9971;52.446;13.452;2024-02-21T12:59:30;4.78;;;2.62;;
19645;SDS011;9971;52.446;13.452;2024-02-21T13:04:33;4.62;;;3.17;;
19645;SDS011;9971;52.446;13.452;2024-02-21T13:09:35;4.35;;;3.17;;
19645;SDS011;9971;52.446;13.452;2024-02-21T13:14:37;4.45;;;3.00;;
19645;SDS011;9971;52.446;13.452;2024-02-21T13:19:40;4.35;;;3.05;;
19645;SDS011;9971;52.446;13.452;2024-02-21T13:24:42;4.35;;;2.85;;
19645;SDS011;9971;52.446;13.452;2024-02-21T13:29:45;5.45;;;2.92;;
19645;SDS011;9971;52.446;13.452;2024-02-21T13:34:47;3.65;;;3.15;;
19645;SDS011;9971;52.446;13.452;2024-02-21T13:39:50;4.15;;;2.95;;
19645;SDS011;9971;52.446;13.452;2024-02-21T13:44:53;4.22;;;3.00;;
19645;SDS011;9971;52.446;13.452;2024-02-21T13:49:55;3.92;;;2.47;;
19645;SDS011;9971;52.446;13.452;2024-02-21T13:54:58;3.05;;;2.75;;
19645;SDS011;9971;52.446;13.452;2024-02-21T14:00:01;4.33;;;2.55;;
19645;SDS011;9971;52.446;13.452;2024-02-21T14:05:02;4.03;;;2.70;;
19645;SDS011;9971;52.446;13.452;2024-02-21T14:10:05;9.58;;;2.90;;
19645;SDS011;9971;52.446;13.452;2024-02-21T14:15:09;4.67;;;2.40;;
19645;SDS011;9971;52.446;13.452;2024-02-21T14:20:12;3.08;;;2.55;;
19645;SDS011;9971;52.446;13.452;2024-02-21T14:25:15;3.87;;;2.50;;
19645;SDS011;9971;52.446;13.452;2024-02-21T14:30:17;3.90;;;2.67;;
19645;SDS011;9971;52.446;13.452;2024-02-21T14:35:20;5.10;;;2.95;;
19645;SDS011;9971;52.446;13.452;2024-02-21T14:40:22;4.67;;;2.95;;
19645;SDS011;9971;52.446;13.452;2024-02-21T14:45:25;3.43;;;2.73;;
19645;SDS011;9971;52.446;13.452;2024-02-21T14:50:27;4.37;;;2.90;;
19645;SDS011;9971;52.446;13.452;2024-02-21T14:55:30;6.78;;;2.85;;
19645;SDS011;9971;52.446;13.452;2024-02-21T15:00:32;5.47;;;2.20;;
19645;SDS011;9971;52.446;13.452;2024-02-21T15:05:35;5.87;;;2.50;;
19645;SDS011;9971;52.446;13.452;2024-02-21T15:10:37;3.87;;;2.33;;
19645;SDS011;9971;52.446;13.452;2024-02-21T15:15:39;3.60;;;2.67;;
19645;SDS011;9971;52.446;13.452;2024-02-21T15:20:41;2.98;;;2.25;;
19645;SDS011;9971;52.446;13.452;2024-02-21T15:25:44;3.90;;;2.47;;
19645;SDS011;9971;52.446;13.452;2024-02-21T15:30:46;3.90;;;2.50;;
19645;SDS011;9971;52.446;13.452;2024-02-21T15:35:48;6.60;;;3.00;;
19645;SDS011;9971;52.446;13.452;2024-02-21T15:40:50;3.40;;;2.43;;
19645;SDS011;9971;52.446;13.452;2024-02-21T15:45:53;3.80;;;2.58;;
19645;SDS011;9971;52.446;13.452;2024-02-21T15:50:55;5.50;;;2.90;;
19645;SDS011;9971;52.446;13.452;2024-02-21T15:55:57;4.60;;;3.27;;
19645;SDS011;9971;52.446;13.452;2024-02-21T16:01:00;5.75;;;2.95;;
19645;SDS011;9971;52.446;13.452;2024-02-21T16:06:02;5.73;;;3.63;;
19645;SDS011;9971;52.446;13.452;2024-02-21T16:11:05;5.30;;;2.80;;
19645;SDS011;9971;52.446;13.452;2024-02-21T16:16:07;4.67;;;3.00;;
19645;SDS011;9971;52.446;13.452;2024-02-21T16:21:09;4.43;;;2.73;;
19645;SDS011;9971;52.446;13.452;2024-02-21T16:26:11;4.00;;;2.55;;
19645;SDS011;9971;52.446;13.452;2024-02-21T16:31:14;6.27;;;3.27;;
19645;SDS011;9971;52.446;13.452;2024-02-21T16:36:19;4.58;;;2.60;;
19645;SDS011;9971;52.446;13.452;2024-02-21T16:41:22;6.30;;;2.98;;
19645;SDS011;9971;52.446;13.452;2024-02-21T16:46:25;4.90;;;2.98;;
19645;SDS011;9971;52.446;13.452;2024-02-21T16:51:27;5.45;;;3.33;;
19645;SDS011;9971;52.446;13.452;2024-02-21T16:56:29;2.95;;;2.30;;
19645;SDS011;9971;52.446;13.452;2024-02-21T17:01:34;3.58;;;2.65;;
19645;SDS011;9971;52.446;13.452;2024-02-21T17:06:35;7.47;;;2.63;;
19645;SDS011;9971;52.446;13.452;2024-02-21T17:11:38;2.77;;;1.95;;
19645;SDS011;9971;52.446;13.452;2024-02-21T17:16:40;3.77;;;2.40;;
19645;SDS011;9971;52.446;13.452;2024-02-21T17:21:42;3.27;;;2.30;;
19645;SDS011;9971;52.446;13.452;2024-02-21T17:26:45;4.00;;;2.40;;
19645;SDS011;9971;52.446;13.452;2024-02-21T17:31:47;3.17;;;2.27;;
19645;SDS011;9971;52.446;13.452;2024-02-21T17:36:50;4.72;;;3.00;;
19645;SDS011;9971;52.446;13.452;2024-02-21T17:41:52;2.60;;;2.30;;
19645;SDS011;9971;52.446;13.452;2024-02-21T17:46:54;3.65;;;2.55;;
19645;SDS011;9971;52.446;13.452;2024-02-21T17:51:57;4.83;;;2.67;;
19645;SDS011;9971;52.446;13.452;2024-02-21T17:56:59;5.10;;;2.90;;
19645;SDS011;9971;52.446;13.452;2024-02-21T18:02:02;3.37;;;3.05;;
19645;SDS011;9971;52.446;13.452;2024-02-21T18:07:04;5.47;;;3.37;;
19645;SDS011;9971;52.446;13.452;2024-02-21T18:12:07;6.95;;;3.85;;
19645;SDS011;9971;52.446;13.452;2024-02-21T18:17:10;4.92;;;3.20;;
19645;SDS011;9971;52.446;13.452;2024-02-21T18:22:12;5.67;;;3.23;;
19645;SDS011;9971;52.446;13.452;2024-02-21T18:27:14;6.28;;;3.80;;
19645;SDS011;9971;52.446;13.452;2024-02-21T18:32:17;4.30;;;2.62;;
19645;SDS011;9971;52.446;13.452;2024-02-21T18:37:19;3.58;;;2.35;;
19645;SDS011;9971;52.446;13.452;2024-02-21T18:42:21;2.92;;;2.10;;
19645;SDS011;9971;52.446;13.452;2024-02-21T18:47:24;3.33;;;2.17;;
19645;SDS011;9971;52.446;13.452;2024-02-21T18:52:26;3.10;;;2.00;;
19645;SDS011;9971;52.446;13.452;2024-02-21T18:57:29;2.45;;;2.20;;
19645;SDS011;9971;52.446;13.452;2024-02-21T19:02:32;2.10;;;1.90;;
19645;SDS011;9971;52.446;13.452;2024-02-21T19:07:34;3.03;;;1.90;;
19645;SDS011;9971;52.446;13.452;2024-02-21T19:12:37;1.82;;;1.55;;
19645;SDS011;9971;52.446;13.452;2024-02-21T19:17:39;2.00;;;1.65;;
19645;SDS011;9971;52.446;13.452;2024-02-21T19:22:41;1.57;;;1.47;;
19645;SDS011;9971;52.446;13.452;2024-02-21T19:27:44;1.47;;;1.32;;
19645;SDS011;9971;52.446;13.452;2024-02-21T19:32:46;1.63;;;1.53;;
19645;SDS011;9971;52.446;13.452;2024-02-21T19:37:48;1.65;;;1.50;;
19645;SDS011;9971;52.446;13.452;2024-02-21T19:42:51;1.67;;;1.50;;
19645;SDS011;9971;52.446;13.452;2024-02-21T19:47:53;1.00;;;0.93;;
19645;SDS011;9971;52.446;13.452;2024-02-21T19:52:55;0.90;;;0.90;;
19645;SDS011;9971;52.446;13.452;2024-02-21T19:57:58;1.15;;;1.15;;
19645;SDS011;9971;52.446;13.452;2024-02-21T20:03:00;2.08;;;1.72;;
19645;SDS011;9971;52.446;13.452;2024-02-21T20:08:02;4.67;;;2.10;;
19645;SDS011;9971;52.446;13.452;2024-02-21T20:13:05;3.35;;;2.65;;
19645;SDS011;9971;52.446;13.452;2024-02-21T20:18:08;2.63;;;2.10;;
19645;SDS011;9971;52.446;13.452;2024-02-21T20:23:09;2.10;;;1.90;;
19645;SDS011;9971;52.446;13.452;2024-02-21T20:28:12;2.12;;;1.85;;
19645;SDS011;9971;52.446;13.452;2024-02-21T20:33:14;3.03;;;2.20;;
19645;SDS011;9971;52.446;13.452;2024-02-21T20:38:16;3.47;;;2.12;;
19645;SDS011;9971;52.446;13.452;2024-02-21T20:43:18;3.40;;;2.27;;
19645;SDS011;9971;52.446;13.452;2024-02-21T20:48:20;2.15;;;1.95;;
19645;SDS011;9971;52.446;13.452;2024-02-21T20:53:23;2.92;;;2.30;;
19645;SDS011;9971;52.446;13.452;2024-02-21T20:58:25;2.12;;;1.92;;
19645;SDS011;9971;52.446;13.452;2024-02-21T21:03:28;2.30;;;2.10;;
19645;SDS011;9971;52.446;13.452;2024-02-21T21:08:30;2.67;;;2.25;;
19645;SDS011;9971;52.446;13.452;2024-02-21T21:13:33;2.13;;;1.90;;
19645;SDS011;9971;52.446;13.452;2024-02-21T21:18:35;2.05;;;1.70;;
19645;SDS011;9971;52.446;13.452;2024-02-21T21:23:37;3.65;;;1.85;;
19645;SDS011;9971;52.446;13.452;2024-02-21T21:28:40;2.92;;;1.75;;
19645;SDS011;9971;52.446;13.452;2024-02-21T21:33:42;2.00;;;1.60;;
19645;SDS011;9971;52.446;13.452;2024-02-21T21:38:44;1.90;;;1.47;;
19645;SDS011;9971;52.446;13.452;2024-02-21T21:43:46;2.53;;;1.60;;
19645;SDS011;9971;52.446;13.452;2024-02-21T21:48:49;2.62;;;2.02;;
19645;SDS011;9971;52.446;13.452;2024-02-21T21:53:51;1.83;;;1.47;;
19645;SDS011;9971;52.446;13.452;2024-02-21T21:58:53;3.37;;;1.92;;
19645;SDS011;9971;52.446;13.452;2024-02-21T22:03:56;2.65;;;1.67;;
19645;SDS011;9971;52.446;13.452;2024-02-21T22:08:58;1.47;;;1.37;;
19645;SDS011;9971;52.446;13.452;2024-02-21T22:14:01;2.13;;;1.53;;
19645;SDS011;9971;52.446;13.452;2024-02-21T22:19:04;2.87;;;1.47;;
19645;SDS011;9971;52.446;13.452;2024-02-21T22:24:06;2.40;;;1.80;;
19645;SDS011;9971;52.446;13.452;2024-02-21T22:29:08;2.65;;;1.65;;
19645;SDS011;9971;52.446;13.452;2024-02-21T22:34:11;2.45;;;1.62;;
19645;SDS011;9971;52.446;13.452;2024-02-21T22:39:13;2.97;;;2.13;;
19645;SDS011;9971;52.446;13.452;2024-02-21T22:44:16;2.30;;;1.62;;
19645;SDS011;9971;52.446;13.452;2024-02-21T22:49:18;2.60;;;1.75;;
19645;SDS011;9971;52.446;13.452;2024-02-21T22:54:21;1.55;;;1.22;;
19645;SDS011;9971;52.446;13.452;2024-02-21T22:59:23;1.47;;;1.07;;
19645;SDS011;9971;52.446;13.452;2024-02-21T23:04:26;1.47;;;1.37;;
19645;SDS011;9971;52.446;13.452;2024-02-21T23:09:29;3.85;;;2.05;;
19645;SDS011;9971;52.446;13.452;2024-02-21T23:14:31;3.10;;;2.00;;
19645;SDS011;9971;52.446;13.452;2024-02-21T23:19:33;5.20;;;1.98;;
19645;SDS011;9971;52.446;13.452;2024-02-21T23:24:36;2.62;;;1.75;;
19645;SDS011;9971;52.446;13.452;2024-02-21T23:29:38;5.85;;;2.10;;
19645;SDS011;9971;52.446;13.452;2024-02-21T23:34:41;5.22;;;2.27;;
19645;SDS011;9971;52.446;13.452;2024-02-21T23:39:43;4.03;;;2.43;;
19645;SDS011;9971;52.446;13.452;2024-02-21T23:44:45;3.20;;;2.22;;
19645;SDS011;9971;52.446;13.452;2024-02-21T23:49:47;3.70;;;1.90;;
19645;SDS011;9971;52.446;13.452;2024-02-21T23:54:50;3.72;;;1.98;;
19645;SDS011;9971;52.446;13.452;2024-02-21T23:59:52;2.20;;;1.80;;
